createdAt,value
2022-11-26T00:01:41.695Z,5.27
2022-11-26T00:04:10.223Z,5.90
2022-11-26T00:06:41.798Z,7.37
2022-11-26T00:09:14.015Z,5.30
2022-11-26T00:11:42.496Z,6.03
2022-11-26T00:14:13.615Z,5.10
2022-11-26T00:16:41.888Z,5.70
2022-11-26T00:19:10.201Z,6.23
2022-11-26T00:21:39.375Z,6.80
2022-11-26T00:24:22.406Z,8.03
2022-11-26T00:26:52.396Z,6.90
2022-11-26T00:29:20.679Z,11.10
2022-11-26T00:31:49.130Z,10.83
2022-11-26T00:34:17.472Z,16.90
2022-11-26T00:36:45.758Z,20.63
2022-11-26T00:39:14.565Z,28.70
2022-11-26T00:41:42.833Z,31.17
2022-11-26T00:44:17.685Z,27.80
2022-11-26T00:46:47.322Z,25.57
2022-11-26T00:49:15.574Z,27.50
2022-11-26T00:51:43.921Z,32.30
2022-11-26T00:54:12.322Z,34.03
2022-11-26T00:56:40.977Z,39.60
2022-11-26T00:59:11.056Z,33.93
2022-11-26T01:01:39.365Z,31.93
2022-11-26T01:04:09.052Z,28.93
2022-11-26T01:06:37.753Z,29.77
2022-11-26T01:09:06.138Z,34.57
2022-11-26T01:11:34.455Z,31.20
2022-11-26T01:14:02.826Z,29.00
2022-11-26T01:16:31.686Z,27.83
2022-11-26T01:19:00.291Z,27.37
2022-11-26T01:21:30.366Z,25.07
2022-11-26T01:23:58.877Z,24.60
2022-11-26T01:26:28.402Z,24.23
2022-11-26T01:28:57.030Z,21.60
2022-11-26T01:31:26.689Z,24.40
2022-11-26T01:33:55.084Z,21.20
2022-11-26T01:36:24.853Z,19.27
2022-11-26T01:38:54.510Z,22.27
2022-11-26T01:41:26.197Z,19.13
2022-11-26T01:43:54.475Z,19.00
2022-11-26T01:46:23.444Z,16.63
2022-11-26T01:48:52.198Z,21.33
2022-11-26T01:51:20.566Z,16.03
2022-11-26T01:53:49.840Z,15.20
2022-11-26T01:56:21.088Z,19.53
2022-11-26T01:58:50.674Z,15.80
2022-11-26T02:01:19.346Z,16.93
2022-11-26T02:03:50.541Z,14.57
2022-11-26T02:06:19.999Z,17.60
2022-11-26T02:08:48.669Z,17.43
2022-11-26T02:11:18.165Z,18.13
2022-11-26T02:13:49.039Z,15.90
2022-11-26T02:16:20.732Z,15.83
2022-11-26T02:18:51.562Z,13.33
2022-11-26T02:21:20.918Z,13.07
2022-11-26T02:24:07.462Z,11.93
2022-11-26T02:26:49.907Z,14.57
2022-11-26T02:29:23.934Z,14.27
2022-11-26T02:31:54.931Z,11.00
2022-11-26T02:34:24.074Z,12.67
2022-11-26T02:36:53.371Z,13.00
2022-11-26T02:39:22.357Z,12.27
2022-11-26T02:41:51.077Z,13.50
2022-11-26T02:44:19.891Z,9.47
2022-11-26T02:46:48.762Z,9.50
2022-11-26T02:49:19.153Z,10.63
2022-11-26T02:51:47.463Z,10.77
2022-11-26T02:54:15.781Z,8.63
2022-11-26T02:56:44.049Z,9.53
2022-11-26T02:59:12.944Z,8.10
2022-11-26T03:01:42.310Z,6.93
2022-11-26T03:04:11.217Z,10.17
2022-11-26T03:06:40.885Z,8.43
2022-11-26T03:09:09.246Z,9.70
2022-11-26T03:11:37.647Z,8.10
2022-11-26T03:14:05.958Z,9.00
2022-11-26T03:16:34.276Z,6.60
2022-11-26T03:19:02.603Z,6.67
2022-11-26T03:21:30.875Z,8.00
2022-11-26T03:24:00.714Z,8.43
2022-11-26T03:26:29.024Z,6.50
2022-11-26T03:28:57.274Z,6.40
2022-11-26T03:31:25.677Z,7.30
2022-11-26T03:33:54.029Z,7.70
2022-11-26T03:36:22.322Z,6.23
2022-11-26T03:38:50.659Z,6.33
2022-11-26T03:41:20.307Z,6.20
2022-11-26T03:43:49.160Z,6.07
2022-11-26T03:46:17.555Z,5.53
2022-11-26T03:48:45.871Z,5.73
2022-11-26T03:51:14.176Z,3.80
2022-11-26T03:53:42.493Z,3.73
2022-11-26T03:56:10.929Z,3.77
2022-11-26T03:58:40.605Z,7.60
2022-11-26T04:01:09.704Z,5.37
2022-11-26T04:03:38.015Z,5.83
2022-11-26T04:06:06.366Z,3.80
2022-11-26T04:08:34.742Z,6.10
2022-11-26T04:11:03.027Z,3.37
2022-11-26T04:13:31.303Z,7.13
2022-11-26T04:16:00.977Z,9.27
2022-11-26T04:18:29.270Z,4.50
2022-11-26T04:20:57.551Z,4.87
2022-11-26T04:23:25.874Z,4.83
2022-11-26T04:25:54.198Z,2.67
2022-11-26T04:28:22.459Z,4.63
2022-11-26T04:30:50.941Z,5.07
2022-11-26T04:33:21.038Z,3.13
2022-11-26T04:35:49.550Z,3.57
2022-11-26T04:38:21.533Z,2.73
2022-11-26T04:40:52.508Z,3.77
2022-11-26T04:43:20.808Z,2.47
2022-11-26T04:45:49.134Z,4.03
2022-11-26T04:48:17.462Z,6.17
2022-11-26T04:50:47.173Z,6.33
2022-11-26T04:53:15.425Z,5.50
2022-11-26T04:55:43.697Z,3.07
2022-11-26T04:58:11.977Z,3.10
2022-11-26T05:00:40.360Z,2.50
2022-11-26T05:03:08.708Z,1.73
2022-11-26T05:05:37.039Z,3.53
2022-11-26T05:08:07.009Z,1.67
2022-11-26T05:10:35.277Z,1.63
2022-11-26T05:13:03.626Z,1.70
2022-11-26T05:15:31.935Z,2.27
2022-11-26T05:18:00.183Z,2.40
2022-11-26T05:20:28.465Z,6.87
2022-11-26T05:22:56.952Z,2.10
2022-11-26T05:25:26.554Z,1.83
2022-11-26T05:27:54.919Z,1.20
2022-11-26T05:30:23.274Z,1.70
2022-11-26T05:32:51.580Z,2.20
2022-11-26T05:35:19.923Z,2.47
2022-11-26T05:37:48.206Z,2.17
2022-11-26T05:40:16.583Z,2.97
2022-11-26T05:42:46.263Z,2.37
2022-11-26T05:45:14.557Z,3.00
2022-11-26T05:47:42.848Z,3.33
2022-11-26T05:50:11.731Z,2.30
2022-11-26T05:52:39.975Z,2.77
2022-11-26T05:55:09.093Z,1.70
2022-11-26T05:57:37.402Z,2.90
2022-11-26T06:00:08.092Z,1.77
2022-11-26T06:02:36.492Z,2.13
2022-11-26T06:05:04.867Z,2.57
2022-11-26T06:07:33.228Z,1.00
2022-11-26T06:10:01.542Z,3.67
2022-11-26T06:12:29.821Z,2.53
2022-11-26T06:14:58.108Z,1.40
2022-11-26T06:17:27.717Z,1.40
2022-11-26T06:19:55.994Z,2.07
2022-11-26T06:22:24.303Z,3.00
2022-11-26T06:24:52.581Z,1.30
2022-11-26T06:27:20.899Z,1.87
2022-11-26T06:29:49.177Z,1.50
2022-11-26T06:32:17.472Z,1.83
2022-11-26T06:34:52.587Z,0.93
2022-11-26T06:37:22.168Z,1.83
2022-11-26T06:39:50.446Z,2.00
2022-11-26T06:42:18.763Z,1.07
2022-11-26T06:44:47.124Z,3.13
2022-11-26T06:47:15.519Z,3.90
2022-11-26T06:49:43.790Z,1.40
2022-11-26T06:52:13.487Z,3.40
2022-11-26T06:54:41.805Z,1.10
2022-11-26T06:57:10.122Z,2.37
2022-11-26T06:59:38.451Z,2.50
2022-11-26T07:02:06.756Z,1.93
2022-11-26T07:04:35.091Z,2.57
2022-11-26T07:07:03.394Z,3.07
2022-11-26T07:09:33.050Z,1.43
2022-11-26T07:12:01.341Z,1.47
2022-11-26T07:14:29.601Z,1.30
2022-11-26T07:16:58.015Z,2.37
2022-11-26T07:19:26.338Z,2.17
2022-11-26T07:21:54.708Z,2.17
2022-11-26T07:24:23.085Z,0.77
2022-11-26T07:26:52.816Z,2.53
2022-11-26T07:29:21.088Z,0.87
2022-11-26T07:31:49.520Z,1.93
2022-11-26T07:34:18.005Z,1.83
2022-11-26T07:36:46.271Z,2.20
2022-11-26T07:39:14.604Z,3.67
2022-11-26T07:41:42.962Z,1.67
2022-11-26T07:44:14.612Z,1.10
2022-11-26T07:46:43.009Z,1.57
2022-11-26T07:49:11.284Z,1.30
2022-11-26T07:51:39.848Z,1.53
2022-11-26T07:54:08.756Z,1.03
2022-11-26T07:56:37.213Z,3.37
2022-11-26T07:59:05.516Z,1.00
2022-11-26T08:01:35.368Z,0.80
2022-11-26T08:04:05.148Z,1.90
2022-11-26T08:06:33.390Z,2.00
2022-11-26T08:09:02.412Z,0.90
2022-11-26T08:11:31.390Z,1.77
2022-11-26T08:14:00.143Z,1.80
2022-11-26T08:16:29.350Z,1.43
2022-11-26T08:18:59.458Z,2.10
2022-11-26T08:21:27.762Z,1.30
2022-11-26T08:23:56.282Z,1.00
2022-11-26T08:26:33.041Z,0.70
2022-11-26T08:29:04.438Z,1.27
2022-11-26T08:31:32.943Z,0.93
2022-11-26T08:34:02.654Z,1.07
2022-11-26T08:36:31.422Z,2.00
2022-11-26T08:39:00.082Z,2.23
2022-11-26T08:41:28.668Z,1.37
2022-11-26T08:44:12.193Z,1.50
2022-11-26T08:46:41.064Z,4.43
2022-11-26T08:49:13.111Z,2.10
2022-11-26T08:51:41.517Z,1.73
2022-11-26T08:54:09.793Z,1.67
2022-11-26T08:56:38.053Z,4.43
2022-11-26T08:59:06.363Z,1.60
2022-11-26T09:01:34.961Z,2.37
2022-11-26T09:04:03.475Z,1.97
2022-11-26T09:06:34.345Z,0.80
2022-11-26T09:09:15.092Z,0.73
2022-11-26T09:11:44.305Z,0.60
2022-11-26T09:14:12.599Z,0.50
2022-11-26T09:16:40.992Z,2.10
2022-11-26T09:19:09.665Z,1.90
2022-11-26T09:21:39.283Z,0.70
2022-11-26T09:24:08.144Z,1.40
2022-11-26T09:26:36.595Z,1.50
2022-11-26T09:29:04.960Z,1.43
2022-11-26T09:31:33.329Z,1.47
2022-11-26T09:34:02.098Z,0.53
2022-11-26T09:36:30.567Z,1.93
2022-11-26T09:39:00.268Z,1.27
2022-11-26T09:41:34.480Z,3.63
2022-11-26T09:44:08.686Z,1.30
2022-11-26T09:46:51.005Z,0.90
2022-11-26T09:49:25.632Z,1.17
2022-11-26T09:51:55.076Z,2.13
2022-11-26T09:54:25.681Z,1.00
2022-11-26T09:56:54.847Z,0.60
2022-11-26T09:59:23.100Z,0.77
2022-11-26T10:01:51.508Z,1.60
2022-11-26T10:04:21.135Z,1.20
2022-11-26T10:06:50.678Z,0.50
2022-11-26T10:09:37.010Z,1.73
2022-11-26T10:12:10.995Z,0.70
2022-11-26T10:14:52.203Z,1.80
2022-11-26T10:17:27.186Z,2.07
2022-11-26T10:19:59.071Z,0.70
2022-11-26T10:22:28.137Z,0.97
2022-11-26T10:24:56.507Z,0.83
2022-11-26T10:27:27.122Z,0.90
2022-11-26T10:29:56.242Z,1.10
2022-11-26T10:32:26.534Z,0.97
2022-11-26T10:34:55.323Z,3.23
2022-11-26T10:37:24.112Z,1.60
2022-11-26T10:39:58.137Z,2.27
2022-11-26T10:42:29.720Z,0.57
2022-11-26T10:44:58.713Z,2.70
2022-11-26T10:47:27.988Z,2.50
2022-11-26T10:49:56.580Z,1.70
2022-11-26T10:52:25.439Z,0.70
2022-11-26T10:55:17.688Z,1.23
2022-11-26T10:57:50.151Z,1.87
2022-11-26T11:00:33.633Z,0.80
2022-11-26T11:03:02.011Z,1.10
2022-11-26T11:05:30.287Z,2.43
2022-11-26T11:07:58.713Z,1.90
2022-11-26T11:10:27.212Z,2.20
2022-11-26T11:13:11.202Z,5.17
2022-11-26T11:15:40.405Z,2.50
2022-11-26T11:18:08.992Z,0.50
2022-11-26T11:20:37.910Z,1.20
2022-11-26T11:23:07.569Z,2.20
2022-11-26T11:25:36.236Z,0.73
2022-11-26T11:28:12.437Z,4.13
2022-11-26T11:30:41.232Z,2.43
2022-11-26T11:33:13.787Z,0.87
2022-11-26T11:35:42.056Z,0.77
2022-11-26T11:38:13.333Z,0.60
2022-11-26T11:40:42.796Z,1.20
2022-11-26T11:43:15.258Z,2.73
2022-11-26T11:45:47.289Z,1.53
2022-11-26T11:48:18.833Z,2.53
2022-11-26T11:50:48.926Z,0.70
2022-11-26T11:53:21.578Z,2.70
2022-11-26T11:55:52.742Z,1.27
2022-11-26T11:58:27.570Z,2.63
2022-11-26T12:00:58.219Z,0.60
2022-11-26T12:03:39.823Z,0.67
2022-11-26T12:06:14.390Z,1.03
2022-11-26T12:08:46.131Z,0.70
2022-11-26T12:11:18.420Z,1.70
2022-11-26T12:13:49.131Z,1.70
2022-11-26T12:16:17.465Z,1.50
2022-11-26T12:18:48.238Z,1.30
2022-11-26T12:21:17.591Z,1.57
2022-11-26T12:23:48.068Z,0.60
2022-11-26T12:26:17.383Z,0.40
2022-11-26T12:28:51.328Z,0.57
2022-11-26T12:31:23.172Z,1.23
2022-11-26T12:33:52.238Z,2.23
2022-11-26T12:36:22.059Z,1.63
2022-11-26T12:38:51.375Z,2.77
2022-11-26T12:41:21.017Z,1.07
2022-11-26T12:43:50.836Z,1.30
2022-11-26T12:46:20.849Z,1.70
2022-11-26T12:48:52.489Z,1.23
2022-11-26T12:51:23.692Z,2.30
2022-11-26T12:53:54.034Z,1.23
2022-11-26T12:56:23.382Z,1.23
2022-11-26T12:58:54.538Z,1.17
2022-11-26T13:01:24.786Z,0.63
2022-11-26T13:04:14.354Z,2.97
2022-11-26T13:06:48.380Z,1.13
2022-11-26T13:09:20.589Z,0.97
2022-11-26T13:11:51.506Z,0.43
2022-11-26T13:14:22.708Z,0.73
2022-11-26T13:16:52.526Z,0.60
2022-11-26T13:19:22.899Z,2.40
2022-11-26T13:21:56.567Z,0.67
2022-11-26T13:24:28.896Z,0.90
2022-11-26T13:27:01.699Z,0.57
2022-11-26T13:29:37.098Z,1.30
2022-11-26T13:32:13.073Z,1.27
2022-11-26T13:34:45.106Z,1.07
2022-11-26T13:37:26.287Z,1.23
2022-11-26T13:40:06.477Z,1.63
2022-11-26T13:42:49.827Z,1.17
2022-11-26T13:45:28.077Z,2.20
2022-11-26T13:47:56.859Z,0.37
2022-11-26T13:50:27.603Z,1.30
2022-11-26T13:52:57.331Z,1.60
2022-11-26T13:55:26.556Z,2.70
2022-11-26T13:57:56.193Z,2.63
2022-11-26T14:00:29.094Z,1.43
2022-11-26T14:02:57.591Z,2.00
2022-11-26T14:05:29.122Z,0.63
2022-11-26T14:07:57.707Z,0.63
2022-11-26T14:10:43.683Z,0.83
2022-11-26T14:13:12.649Z,0.97
2022-11-26T14:16:08.558Z,0.93
2022-11-26T14:19:06.972Z,0.73
2022-11-26T14:21:59.062Z,2.00
2022-11-26T14:24:46.681Z,3.27
2022-11-26T14:27:15.146Z,0.50
2022-11-26T14:29:43.540Z,1.30
2022-11-26T14:32:13.462Z,1.90
2022-11-26T14:34:43.089Z,1.50
2022-11-26T14:37:14.567Z,0.50
2022-11-26T14:39:43.229Z,0.53
2022-11-26T14:42:14.891Z,1.00
2022-11-26T14:44:43.346Z,1.40
2022-11-26T14:47:13.903Z,0.50
2022-11-26T14:49:42.771Z,1.77
2022-11-26T14:52:17.337Z,2.10
2022-11-26T14:54:46.278Z,0.80
2022-11-26T14:57:16.094Z,2.30
2022-11-26T14:59:56.325Z,0.40
2022-11-26T15:02:25.038Z,0.83
2022-11-26T15:04:59.472Z,1.93
2022-11-26T15:07:29.676Z,1.60
2022-11-26T15:10:04.994Z,0.53
2022-11-26T15:12:33.665Z,1.10
2022-11-26T15:15:02.250Z,1.80
2022-11-26T15:17:30.985Z,1.70
2022-11-26T15:19:59.838Z,0.80
2022-11-26T15:22:30.813Z,1.37
2022-11-26T15:24:59.578Z,0.73
2022-11-26T15:27:29.072Z,1.23
2022-11-26T15:29:57.593Z,0.77
2022-11-26T15:32:26.720Z,0.60
2022-11-26T15:34:55.083Z,0.70
2022-11-26T15:37:23.560Z,1.43
2022-11-26T15:40:06.905Z,1.17
2022-11-26T15:42:36.927Z,0.83
2022-11-26T15:45:05.935Z,0.63
2022-11-26T15:47:34.586Z,2.23
2022-11-26T15:50:03.155Z,1.47
2022-11-26T15:52:33.175Z,0.60
2022-11-26T15:55:18.544Z,0.57
2022-11-26T15:57:50.053Z,1.43
2022-11-26T16:00:23.854Z,0.97
2022-11-26T16:02:52.894Z,0.70
2022-11-26T16:05:25.016Z,0.50
2022-11-26T16:08:00.426Z,0.97
2022-11-26T16:10:31.281Z,0.67
2022-11-26T16:13:18.558Z,1.23
2022-11-26T16:15:49.328Z,0.67
2022-11-26T16:18:18.319Z,1.63
2022-11-26T16:20:46.866Z,2.33
2022-11-26T16:23:20.263Z,1.60
2022-11-26T16:26:03.999Z,3.80
2022-11-26T16:28:32.675Z,1.43
2022-11-26T16:31:02.457Z,2.93
2022-11-26T16:33:30.819Z,0.50
2022-11-26T16:35:59.465Z,0.87
2022-11-26T16:38:28.736Z,0.67
2022-11-26T16:40:57.075Z,1.83
2022-11-26T16:43:25.633Z,2.13
2022-11-26T16:45:55.657Z,0.57
2022-11-26T16:48:26.597Z,0.93
2022-11-26T16:50:55.624Z,2.03
2022-11-26T16:53:24.262Z,0.43
2022-11-26T16:55:52.939Z,0.60
2022-11-26T16:58:24.682Z,0.60
2022-11-26T17:00:54.083Z,1.77
2022-11-26T17:03:23.669Z,1.90
2022-11-26T17:05:54.736Z,0.70
2022-11-26T17:08:23.289Z,1.53
2022-11-26T17:10:52.431Z,2.10
2022-11-26T17:13:21.487Z,1.90
2022-11-26T17:15:50.629Z,0.60
2022-11-26T17:18:19.989Z,1.13
2022-11-26T17:20:48.410Z,1.20
2022-11-26T17:23:18.353Z,1.83
2022-11-26T17:25:46.971Z,1.00
2022-11-26T17:28:15.594Z,1.10
2022-11-26T17:30:44.996Z,1.27
2022-11-26T17:33:13.403Z,3.30
2022-11-26T17:35:42.083Z,0.90
2022-11-26T17:38:13.934Z,0.60
2022-11-26T17:40:44.117Z,3.23
2022-11-26T17:43:12.470Z,1.93
2022-11-26T17:45:41.064Z,3.97
2022-11-26T17:48:12.074Z,1.33
2022-11-26T17:50:40.472Z,1.10
2022-11-26T17:53:08.766Z,0.70
2022-11-26T17:55:37.338Z,1.43
2022-11-26T17:58:07.379Z,1.70
2022-11-26T18:00:36.123Z,1.17
2022-11-26T18:03:05.136Z,2.50
2022-11-26T18:05:35.794Z,1.77
2022-11-26T18:08:06.767Z,4.93
2022-11-26T18:10:35.152Z,2.37
2022-11-26T18:13:04.008Z,3.30
2022-11-26T18:15:34.087Z,3.00
2022-11-26T18:18:02.755Z,2.33
2022-11-26T18:20:31.104Z,3.63
2022-11-26T18:23:00.138Z,2.97
2022-11-26T18:25:28.972Z,2.33
2022-11-26T18:27:57.422Z,4.90
2022-11-26T18:30:25.918Z,6.10
2022-11-26T18:32:56.002Z,2.60
2022-11-26T18:35:24.516Z,3.80
2022-11-26T18:37:52.982Z,3.83
2022-11-26T18:40:21.449Z,4.33
2022-11-26T18:42:52.894Z,6.30
2022-11-26T18:45:21.414Z,3.50
2022-11-26T18:47:50.125Z,1.53
2022-11-26T18:50:20.137Z,4.17
2022-11-26T18:52:48.647Z,2.87
2022-11-26T18:55:17.049Z,2.93
2022-11-26T18:57:45.502Z,2.47
2022-11-26T19:00:14.455Z,3.37
2022-11-26T19:02:42.965Z,5.20
2022-11-26T19:05:12.241Z,6.17
2022-11-26T19:07:42.018Z,4.33
2022-11-26T19:10:11.976Z,3.83
2022-11-26T19:12:40.576Z,8.77
2022-11-26T19:15:09.529Z,4.80
2022-11-26T19:17:38.079Z,2.63
2022-11-26T19:20:07.331Z,4.40
2022-11-26T19:22:35.764Z,3.83
2022-11-26T19:25:05.892Z,4.87
2022-11-26T19:27:34.670Z,5.80
2022-11-26T19:30:03.179Z,2.83
2022-11-26T19:32:31.555Z,4.50
2022-11-26T19:35:05.365Z,4.80
2022-11-26T19:37:34.501Z,5.30
2022-11-26T19:40:02.999Z,5.17
2022-11-26T19:42:32.782Z,3.43
2022-11-26T19:45:01.122Z,3.23
2022-11-26T19:47:29.653Z,10.97
2022-11-26T19:49:58.236Z,4.37
2022-11-26T19:52:27.435Z,5.77
2022-11-26T19:54:55.912Z,3.43
2022-11-26T19:57:24.414Z,5.03
2022-11-26T19:59:54.376Z,3.70
2022-11-26T20:02:23.201Z,4.30
2022-11-26T20:04:51.775Z,3.87
2022-11-26T20:07:21.056Z,8.53
2022-11-26T20:09:52.597Z,7.43
2022-11-26T20:12:21.343Z,6.70
2022-11-26T20:14:49.790Z,7.70
2022-11-26T20:17:19.791Z,4.23
2022-11-26T20:19:49.682Z,3.00
2022-11-26T20:22:18.308Z,4.37
2022-11-26T20:24:46.931Z,4.10
2022-11-26T20:27:15.454Z,5.63
2022-11-26T20:29:43.893Z,4.97
2022-11-26T20:32:12.808Z,4.00
2022-11-26T20:34:42.984Z,4.27
2022-11-26T20:37:11.343Z,3.77
2022-11-26T20:39:40.362Z,4.43
2022-11-26T20:42:09.182Z,5.13
2022-11-26T20:44:37.786Z,7.90
2022-11-26T20:47:06.574Z,7.20
2022-11-26T20:49:41.427Z,2.43
2022-11-26T20:52:12.969Z,3.23
2022-11-26T20:54:41.297Z,4.10
2022-11-26T20:57:09.846Z,5.57
2022-11-26T20:59:38.566Z,7.87
2022-11-26T21:02:07.196Z,4.63
2022-11-26T21:04:35.548Z,2.67
2022-11-26T21:07:04.484Z,6.03
2022-11-26T21:09:34.281Z,4.93
2022-11-26T21:12:02.708Z,5.17
2022-11-26T21:14:31.297Z,5.20
2022-11-26T21:16:59.708Z,3.27
2022-11-26T21:19:28.108Z,2.97
2022-11-26T21:21:56.551Z,2.57
2022-11-26T21:24:26.255Z,4.60
2022-11-26T21:26:56.105Z,2.17
2022-11-26T21:29:24.448Z,3.23
2022-11-26T21:31:52.763Z,4.37
2022-11-26T21:34:21.252Z,4.17
2022-11-26T21:36:49.711Z,4.30
2022-11-26T21:39:18.206Z,2.93
2022-11-26T21:41:46.780Z,3.50
2022-11-26T21:44:17.020Z,3.60
2022-11-26T21:46:45.453Z,3.03
2022-11-26T21:49:13.989Z,2.27
2022-11-26T21:51:42.572Z,4.77
2022-11-26T21:54:11.053Z,4.63
2022-11-26T21:56:39.586Z,3.67
2022-11-26T21:59:07.917Z,3.87
2022-11-26T22:01:38.285Z,2.20
2022-11-26T22:04:08.170Z,2.13
2022-11-26T22:06:36.745Z,1.97
2022-11-26T22:09:05.581Z,4.33
2022-11-26T22:11:35.904Z,3.77
2022-11-26T22:14:04.447Z,1.90
2022-11-26T22:16:33.113Z,2.80
2022-11-26T22:19:03.343Z,2.00
2022-11-26T22:21:32.376Z,2.43
2022-11-26T22:24:00.919Z,2.13
2022-11-26T22:26:29.393Z,2.30
2022-11-26T22:28:57.705Z,1.83
2022-11-26T22:31:26.906Z,3.20
2022-11-26T22:33:55.924Z,2.20
2022-11-26T22:36:27.479Z,1.73
2022-11-26T22:38:56.443Z,3.37
2022-11-26T22:41:24.765Z,2.80
2022-11-26T22:43:53.279Z,2.03
2022-11-26T22:46:22.579Z,2.93
2022-11-26T22:48:51.300Z,1.67
2022-11-26T22:51:19.631Z,4.07
2022-11-26T22:53:52.242Z,1.87
2022-11-26T22:56:20.570Z,37.33
2022-11-26T22:58:48.962Z,311.97
2022-11-26T23:01:17.852Z,837.20
2022-11-26T23:03:46.448Z,802.80
2022-11-26T23:06:15.967Z,934.80
2022-11-26T23:08:44.569Z,858.70
2022-11-26T23:11:15.790Z,768.70
2022-11-26T23:13:44.842Z,692.70
2022-11-26T23:16:13.208Z,600.90
2022-11-26T23:18:41.704Z,554.83
2022-11-26T23:21:11.004Z,489.03
2022-11-26T23:23:39.956Z,469.43
2022-11-26T23:26:08.795Z,389.80
2022-11-26T23:28:38.745Z,358.67
2022-11-26T23:31:07.787Z,324.67
2022-11-26T23:33:36.598Z,284.67
2022-11-26T23:36:05.062Z,252.13
2022-11-26T23:38:33.438Z,244.97
2022-11-26T23:41:02.579Z,219.77
2022-11-26T23:43:31.243Z,185.57
2022-11-26T23:46:03.963Z,186.43
2022-11-26T23:48:32.621Z,160.50
2022-11-26T23:51:00.999Z,153.53
2022-11-26T23:53:29.388Z,141.73
2022-11-26T23:56:02.879Z,143.33
2022-11-26T23:58:31.535Z,127.13
